sensor_id;sensor_type;location;lat;lon;timestamp;pressure;altitude;pressure_sealevel;temperature;humidity
47522;BME280;32291;52.010;4.446;2023-05-23T00:00:47;78754.28;;;-144.67;100.00
47522;BME280;32291;52.010;4.446;2023-05-23T00:01:52;78747.88;;;-144.67;100.00
47522;BME280;32291;52.010;4.446;2023-05-23T00:02:55;78756.44;;;-144.67;100.00
47522;BME280;32291;52.010;4.446;2023-05-23T00:03:57;78760.72;;;-144.67;100.00
47522;BME280;32291;52.010;4.446;2023-05-23T00:04:59;78762.84;;;-144.67;100.00
47522;BME280;32291;52.010;4.446;2023-05-23T00:06:05;78762.84;;;-144.67;100.00
47522;BME280;32291;52.010;4.446;2023-05-23T00:07:08;78754.28;;;-144.67;100.00
47522;BME280;32291;52.010;4.446;2023-05-23T00:08:10;78752.16;;;-144.67;100.00
47522;BME280;32291;52.010;4.446;2023-05-23T00:09:14;78754.28;;;-144.67;100.00
47522;BME280;32291;52.010;4.446;2023-05-23T00:10:16;78758.56;;;-144.67;100.00
47522;BME280;32291;52.010;4.446;2023-05-23T00:11:18;78754.28;;;-144.67;100.00
47522;BME280;32291;52.010;4.446;2023-05-23T00:12:20;78758.56;;;-144.67;100.00
47522;BME280;32291;52.010;4.446;2023-05-23T00:13:22;78758.56;;;-144.67;100.00
47522;BME280;32291;52.010;4.446;2023-05-23T00:14:24;78754.28;;;-144.67;100.00
47522;BME280;32291;52.010;4.446;2023-05-23T00:15:25;78758.56;;;-144.67;100.00
47522;BME280;32291;52.010;4.446;2023-05-23T00:16:29;78758.56;;;-144.67;100.00
47522;BME280;32291;52.010;4.446;2023-05-23T00:17:31;78758.56;;;-144.67;100.00
47522;BME280;32291;52.010;4.446;2023-05-23T00:18:33;78747.88;;;-144.67;100.00
47522;BME280;32291;52.010;4.446;2023-05-23T00:19:36;78754.28;;;-144.67;100.00
47522;BME280;32291;52.010;4.446;2023-05-23T00:20:41;78745.72;;;-144.67;100.00
47522;BME280;32291;52.010;4.446;2023-05-23T00:21:47;78745.72;;;-144.67;100.00
47522;BME280;32291;52.010;4.446;2023-05-23T00:22:49;78732.88;;;-144.67;100.00
47522;BME280;32291;52.010;4.446;2023-05-23T00:23:51;78737.16;;;-144.67;100.00
47522;BME280;32291;52.010;4.446;2023-05-23T00:24:54;78732.88;;;-144.67;100.00
47522;BME280;32291;52.010;4.446;2023-05-23T00:25:58;78739.31;;;-144.67;100.00
47522;BME280;32291;52.010;4.446;2023-05-23T00:27:00;78732.88;;;-144.67;100.00
47522;BME280;32291;52.010;4.446;2023-05-23T00:28:03;78739.31;;;-144.67;100.00
47522;BME280;32291;52.010;4.446;2023-05-23T00:29:05;78743.59;;;-144.67;100.00
47522;BME280;32291;52.010;4.446;2023-05-23T00:30:07;78737.16;;;-144.67;100.00
47522;BME280;32291;52.010;4.446;2023-05-23T00:31:08;78741.44;;;-144.67;100.00
47522;BME280;32291;52.010;4.446;2023-05-23T00:32:10;78739.31;;;-144.67;100.00
47522;BME280;32291;52.010;4.446;2023-05-23T00:33:14;78737.16;;;-144.67;100.00
47522;BME280;32291;52.010;4.446;2023-05-23T00:34:16;78737.16;;;-144.67;100.00
47522;BME280;32291;52.010;4.446;2023-05-23T00:35:18;78739.31;;;-144.67;100.00
47522;BME280;32291;52.010;4.446;2023-05-23T00:36:19;78741.44;;;-144.67;100.00
47522;BME280;32291;52.010;4.446;2023-05-23T00:37:22;78741.44;;;-144.67;100.00
47522;BME280;32291;52.010;4.446;2023-05-23T00:38:24;78741.44;;;-144.67;100.00
47522;BME280;32291;52.010;4.446;2023-05-23T00:39:26;78745.72;;;-144.67;100.00
47522;BME280;32291;52.010;4.446;2023-05-23T00:40:28;78745.72;;;-144.67;100.00
47522;BME280;32291;52.010;4.446;2023-05-23T00:41:30;78739.31;;;-144.67;100.00
47522;BME280;32291;52.010;4.446;2023-05-23T00:42:31;78745.72;;;-144.67;100.00
47522;BME280;32291;52.010;4.446;2023-05-23T00:43:33;78750.00;;;-144.67;100.00
47522;BME280;32291;52.010;4.446;2023-05-23T00:44:35;78745.72;;;-144.67;100.00
47522;BME280;32291;52.010;4.446;2023-05-23T00:45:36;78745.72;;;-144.67;100.00
47522;BME280;32291;52.010;4.446;2023-05-23T00:46:39;78747.88;;;-144.67;100.00
47522;BME280;32291;52.010;4.446;2023-05-23T00:47:42;78754.28;;;-144.67;100.00
47522;BME280;32291;52.010;4.446;2023-05-23T00:48:45;78758.56;;;-144.67;100.00
47522;BME280;32291;52.010;4.446;2023-05-23T00:49:47;78756.44;;;-144.67;100.00
47522;BME280;32291;52.010;4.446;2023-05-23T00:50:49;78747.88;;;-144.67;100.00
47522;BME280;32291;52.010;4.446;2023-05-23T00:51:51;78741.44;;;-144.67;100.00
47522;BME280;32291;52.010;4.446;2023-05-23T00:52:54;78750.00;;;-144.67;100.00
47522;BME280;32291;52.010;4.446;2023-05-23T00:53:57;78760.72;;;-144.67;100.00
47522;BME280;32291;52.010;4.446;2023-05-23T00:55:02;78750.00;;;-144.67;100.00
47522;BME280;32291;52.010;4.446;2023-05-23T00:56:04;78754.28;;;-144.67;100.00
47522;BME280;32291;52.010;4.446;2023-05-23T00:57:06;78745.72;;;-144.67;100.00
47522;BME280;32291;52.010;4.446;2023-05-23T00:58:08;78747.88;;;-144.67;100.00
47522;BME280;32291;52.010;4.446;2023-05-23T00:59:11;78737.16;;;-144.67;100.00
47522;BME280;32291;52.010;4.446;2023-05-23T01:00:15;78741.44;;;-144.67;100.00
47522;BME280;32291;52.010;4.446;2023-05-23T01:01:17;78741.44;;;-144.67;100.00
47522;BME280;32291;52.010;4.446;2023-05-23T01:02:19;78737.16;;;-144.67;100.00
47522;BME280;32291;52.010;4.446;2023-05-23T01:03:22;78730.75;;;-144.67;100.00
47522;BME280;32291;52.010;4.446;2023-05-23T01:04:24;78732.88;;;-144.67;100.00
47522;BME280;32291;52.010;4.446;2023-05-23T01:05:27;78724.31;;;-144.67;100.00
47522;BME280;32291;52.010;4.446;2023-05-23T01:06:30;78732.88;;;-144.67;100.00
47522;BME280;32291;52.010;4.446;2023-05-23T01:07:36;78730.75;;;-144.67;100.00
47522;BME280;32291;52.010;4.446;2023-05-23T01:08:39;78735.03;;;-144.67;100.00
47522;BME280;32291;52.010;4.446;2023-05-23T01:09:43;78732.88;;;-144.67;100.00
47522;BME280;32291;52.010;4.446;2023-05-23T01:10:45;78728.59;;;-144.67;100.00
47522;BME280;32291;52.010;4.446;2023-05-23T01:13:39;78726.47;;;-144.67;100.00
47522;BME280;32291;52.010;4.446;2023-05-23T01:15:20;78720.03;;;-144.67;100.00
47522;BME280;32291;52.010;4.446;2023-05-23T01:16:40;78726.47;;;-144.67;100.00
47522;BME280;32291;52.010;4.446;2023-05-23T01:18:01;78732.88;;;-144.67;100.00
47522;BME280;32291;52.010;4.446;2023-05-23T01:20:53;78728.59;;;-144.67;100.00
47522;BME280;32291;52.010;4.446;2023-05-23T01:22:07;78737.16;;;-144.67;100.00
47522;BME280;32291;52.010;4.446;2023-05-23T01:23:35;78732.88;;;-144.67;100.00
47522;BME280;32291;52.010;4.446;2023-05-23T01:24:56;78728.59;;;-144.67;100.00
47522;BME280;32291;52.010;4.446;2023-05-23T01:26:26;78724.31;;;-144.67;100.00
47522;BME280;32291;52.010;4.446;2023-05-23T01:27:52;78728.59;;;-144.67;100.00
47522;BME280;32291;52.010;4.446;2023-05-23T01:29:08;78737.16;;;-144.67;100.00
47522;BME280;32291;52.010;4.446;2023-05-23T01:30:12;78732.88;;;-144.67;100.00
47522;BME280;32291;52.010;4.446;2023-05-23T01:31:20;78730.75;;;-144.67;100.00
47522;BME280;32291;52.010;4.446;2023-05-23T01:32:26;78730.75;;;-144.67;100.00
47522;BME280;32291;52.010;4.446;2023-05-23T01:33:31;78728.59;;;-144.67;100.00
47522;BME280;32291;52.010;4.446;2023-05-23T01:34:37;78730.75;;;-144.67;100.00
47522;BME280;32291;52.010;4.446;2023-05-23T01:35:42;78726.47;;;-144.67;100.00
47522;BME280;32291;52.010;4.446;2023-05-23T01:36:44;78737.16;;;-144.67;100.00
47522;BME280;32291;52.010;4.446;2023-05-23T01:37:47;78737.16;;;-144.67;100.00
47522;BME280;32291;52.010;4.446;2023-05-23T01:38:48;78735.03;;;-144.67;100.00
47522;BME280;32291;52.010;4.446;2023-05-23T01:39:51;78732.88;;;-144.67;100.00
47522;BME280;32291;52.010;4.446;2023-05-23T01:40:53;78728.59;;;-144.67;100.00
47522;BME280;32291;52.010;4.446;2023-05-23T01:41:55;78735.03;;;-144.67;100.00
47522;BME280;32291;52.010;4.446;2023-05-23T01:42:57;78739.31;;;-144.67;100.00
47522;BME280;32291;52.010;4.446;2023-05-23T01:43:59;78737.16;;;-144.67;100.00
47522;BME280;32291;52.010;4.446;2023-05-23T01:45:02;78737.16;;;-144.67;100.00
47522;BME280;32291;52.010;4.446;2023-05-23T01:46:06;78726.47;;;-144.67;100.00
47522;BME280;32291;52.010;4.446;2023-05-23T01:47:10;78720.03;;;-144.67;100.00
47522;BME280;32291;52.010;4.446;2023-05-23T01:48:14;78730.75;;;-144.67;100.00
47522;BME280;32291;52.010;4.446;2023-05-23T01:49:18;78724.31;;;-144.67;100.00
47522;BME280;32291;52.010;4.446;2023-05-23T01:50:23;78711.47;;;-144.67;100.00
47522;BME280;32291;52.010;4.446;2023-05-23T01:51:26;78724.31;;;-144.67;100.00
47522;BME280;32291;52.010;4.446;2023-05-23T01:52:29;78728.59;;;-144.67;100.00
47522;BME280;32291;52.010;4.446;2023-05-23T01:53:31;78728.59;;;-144.67;100.00
47522;BME280;32291;52.010;4.446;2023-05-23T01:54:37;78735.03;;;-144.67;100.00
47522;BME280;32291;52.010;4.446;2023-05-23T01:55:41;78739.31;;;-144.67;100.00
47522;BME280;32291;52.010;4.446;2023-05-23T01:56:43;78745.72;;;-144.67;100.00
47522;BME280;32291;52.010;4.446;2023-05-23T01:57:49;78741.44;;;-144.67;100.00
47522;BME280;32291;52.010;4.446;2023-05-23T01:58:51;78741.44;;;-144.67;100.00
47522;BME280;32291;52.010;4.446;2023-05-23T01:59:53;78737.16;;;-144.67;100.00
47522;BME280;32291;52.010;4.446;2023-05-23T02:00:55;78743.59;;;-144.67;100.00
47522;BME280;32291;52.010;4.446;2023-05-23T02:01:57;78732.88;;;-144.67;100.00
47522;BME280;32291;52.010;4.446;2023-05-23T02:02:59;78730.75;;;-144.67;100.00
47522;BME280;32291;52.010;4.446;2023-05-23T02:04:02;78730.75;;;-144.67;100.00
47522;BME280;32291;52.010;4.446;2023-05-23T02:05:05;78737.16;;;-144.67;100.00
47522;BME280;32291;52.010;4.446;2023-05-23T02:06:07;78730.75;;;-144.67;100.00
47522;BME280;32291;52.010;4.446;2023-05-23T02:07:09;78732.88;;;-144.67;100.00
47522;BME280;32291;52.010;4.446;2023-05-23T02:08:11;78737.16;;;-144.67;100.00
47522;BME280;32291;52.010;4.446;2023-05-23T02:09:13;78735.03;;;-144.67;100.00
47522;BME280;32291;52.010;4.446;2023-05-23T02:10:14;78732.88;;;-144.67;100.00
47522;BME280;32291;52.010;4.446;2023-05-23T02:11:16;78728.59;;;-144.67;100.00
47522;BME280;32291;52.010;4.446;2023-05-23T02:12:17;78735.03;;;-144.67;100.00
47522;BME280;32291;52.010;4.446;2023-05-23T02:13:19;78737.16;;;-144.67;100.00
47522;BME280;32291;52.010;4.446;2023-05-23T02:14:21;78745.72;;;-144.67;100.00
47522;BME280;32291;52.010;4.446;2023-05-23T02:15:24;78754.28;;;-144.67;100.00
47522;BME280;32291;52.010;4.446;2023-05-23T02:16:26;78762.84;;;-144.67;100.00
47522;BME280;32291;52.010;4.446;2023-05-23T02:17:28;78760.72;;;-144.67;100.00
47522;BME280;32291;52.010;4.446;2023-05-23T02:18:30;78767.16;;;-144.67;100.00
47522;BME280;32291;52.010;4.446;2023-05-23T02:19:32;78771.44;;;-144.67;100.00
47522;BME280;32291;52.010;4.446;2023-05-23T02:20:33;78771.44;;;-144.67;100.00
47522;BME280;32291;52.010;4.446;2023-05-23T02:21:35;78769.28;;;-144.67;100.00
47522;BME280;32291;52.010;4.446;2023-05-23T02:22:38;78771.44;;;-144.67;100.00
47522;BME280;32291;52.010;4.446;2023-05-23T02:23:40;78771.44;;;-144.67;100.00
47522;BME280;32291;52.010;4.446;2023-05-23T02:24:42;78771.44;;;-144.67;100.00
47522;BME280;32291;52.010;4.446;2023-05-23T02:25:44;78780.00;;;-144.67;100.00
47522;BME280;32291;52.010;4.446;2023-05-23T02:26:46;78771.44;;;-144.67;100.00
47522;BME280;32291;52.010;4.446;2023-05-23T02:27:48;78758.56;;;-144.67;100.00
47522;BME280;32291;52.010;4.446;2023-05-23T02:28:49;78762.84;;;-144.67;100.00
47522;BME280;32291;52.010;4.446;2023-05-23T02:29:51;78767.16;;;-144.67;100.00
47522;BME280;32291;52.010;4.446;2023-05-23T02:30:53;78771.44;;;-144.67;100.00
47522;BME280;32291;52.010;4.446;2023-05-23T02:31:55;78775.72;;;-144.67;100.00
47522;BME280;32291;52.010;4.446;2023-05-23T02:32:57;78773.56;;;-144.67;100.00
47522;BME280;32291;52.010;4.446;2023-05-23T02:33:58;78790.69;;;-144.67;100.00
47522;BME280;32291;52.010;4.446;2023-05-23T02:35:00;78790.69;;;-144.67;100.00
47522;BME280;32291;52.010;4.446;2023-05-23T02:36:02;78784.28;;;-144.67;100.00
47522;BME280;32291;52.010;4.446;2023-05-23T02:37:04;78792.84;;;-144.67;100.00
47522;BME280;32291;52.010;4.446;2023-05-23T02:38:06;78786.41;;;-144.67;100.00
47522;BME280;32291;52.010;4.446;2023-05-23T02:39:08;78788.56;;;-144.67;100.00
47522;BME280;32291;52.010;4.446;2023-05-23T02:40:10;78797.13;;;-144.67;100.00
47522;BME280;32291;52.010;4.446;2023-05-23T02:41:12;78799.25;;;-144.67;100.00
47522;BME280;32291;52.010;4.446;2023-05-23T02:42:14;78788.56;;;-144.67;100.00
47522;BME280;32291;52.010;4.446;2023-05-23T02:43:16;78788.56;;;-144.67;100.00
47522;BME280;32291;52.010;4.446;2023-05-23T02:44:18;78790.69;;;-144.67;100.00
47522;BME280;32291;52.010;4.446;2023-05-23T02:45:20;78784.28;;;-144.67;100.00
47522;BME280;32291;52.010;4.446;2023-05-23T02:46:22;78788.56;;;-144.67;100.00
47522;BME280;32291;52.010;4.446;2023-05-23T02:47:24;78801.41;;;-144.67;100.00
47522;BME280;32291;52.010;4.446;2023-05-23T02:48:26;78792.84;;;-144.67;100.00
47522;BME280;32291;52.010;4.446;2023-05-23T02:49:28;78809.97;;;-144.67;100.00
47522;BME280;32291;52.010;4.446;2023-05-23T02:50:30;78803.53;;;-144.67;100.00
47522;BME280;32291;52.010;4.446;2023-05-23T02:51:32;78792.84;;;-144.67;100.00
47522;BME280;32291;52.010;4.446;2023-05-23T02:52:34;78809.97;;;-144.67;100.00
47522;BME280;32291;52.010;4.446;2023-05-23T02:53:36;78814.25;;;-144.67;100.00
47522;BME280;32291;52.010;4.446;2023-05-23T02:54:37;78816.41;;;-144.67;100.00
47522;BME280;32291;52.010;4.446;2023-05-23T02:55:39;78818.53;;;-144.67;100.00
47522;BME280;32291;52.010;4.446;2023-05-23T02:56:41;78816.41;;;-144.67;100.00
47522;BME280;32291;52.010;4.446;2023-05-23T02:57:43;78809.97;;;-144.67;100.00
47522;BME280;32291;52.010;4.446;2023-05-23T02:58:45;78801.41;;;-144.67;100.00
47522;BME280;32291;52.010;4.446;2023-05-23T02:59:46;78812.09;;;-144.67;100.00
47522;BME280;32291;52.010;4.446;2023-05-23T03:00:48;78809.97;;;-144.67;100.00
47522;BME280;32291;52.010;4.446;2023-05-23T03:01:49;78818.53;;;-144.67;100.00
47522;BME280;32291;52.010;4.446;2023-05-23T03:02:51;78809.97;;;-144.67;100.00
47522;BME280;32291;52.010;4.446;2023-05-23T03:03:53;78805.69;;;-144.67;100.00
47522;BME280;32291;52.010;4.446;2023-05-23T03:04:55;78805.69;;;-144.67;100.00
47522;BME280;32291;52.010;4.446;2023-05-23T03:05:58;78801.41;;;-144.67;100.00
47522;BME280;32291;52.010;4.446;2023-05-23T03:07:00;78812.09;;;-144.67;100.00
47522;BME280;32291;52.010;4.446;2023-05-23T03:08:03;78809.97;;;-144.67;100.00
47522;BME280;32291;52.010;4.446;2023-05-23T03:09:08;78812.09;;;-144.67;100.00
47522;BME280;32291;52.010;4.446;2023-05-23T03:10:10;78820.69;;;-144.67;100.00
47522;BME280;32291;52.010;4.446;2023-05-23T03:11:11;78833.53;;;-144.67;100.00
47522;BME280;32291;52.010;4.446;2023-05-23T03:12:13;78820.69;;;-144.67;100.00
47522;BME280;32291;52.010;4.446;2023-05-23T03:13:17;78827.09;;;-144.67;100.00
47522;BME280;32291;52.010;4.446;2023-05-23T03:14:19;78831.38;;;-144.67;100.00
47522;BME280;32291;52.010;4.446;2023-05-23T03:15:21;78827.09;;;-144.67;100.00
47522;BME280;32291;52.010;4.446;2023-05-23T03:16:23;78835.66;;;-144.67;100.00
47522;BME280;32291;52.010;4.446;2023-05-23T03:17:25;78827.09;;;-144.67;100.00
47522;BME280;32291;52.010;4.446;2023-05-23T03:18:27;78829.25;;;-144.67;100.00
47522;BME280;32291;52.010;4.446;2023-05-23T03:19:29;78827.09;;;-144.67;100.00
47522;BME280;32291;52.010;4.446;2023-05-23T03:20:31;78833.53;;;-144.67;100.00
47522;BME280;32291;52.010;4.446;2023-05-23T03:21:33;78827.09;;;-144.67;100.00
47522;BME280;32291;52.010;4.446;2023-05-23T03:22:36;78827.09;;;-144.67;100.00
47522;BME280;32291;52.010;4.446;2023-05-23T03:23:38;78839.94;;;-144.67;100.00
47522;BME280;32291;52.010;4.446;2023-05-23T03:24:39;78829.25;;;-144.67;100.00
47522;BME280;32291;52.010;4.446;2023-05-23T03:25:42;78842.09;;;-144.67;100.00
47522;BME280;32291;52.010;4.446;2023-05-23T03:26:44;78844.22;;;-144.67;100.00
47522;BME280;32291;52.010;4.446;2023-05-23T03:27:45;78850.66;;;-144.67;100.00
47522;BME280;32291;52.010;4.446;2023-05-23T03:28:48;78857.06;;;-144.67;100.00
47522;BME280;32291;52.010;4.446;2023-05-23T03:29:51;78852.78;;;-144.67;100.00
47522;BME280;32291;52.010;4.446;2023-05-23T03:30:54;78850.66;;;-144.67;100.00
47522;BME280;32291;52.010;4.446;2023-05-23T03:31:56;78844.22;;;-144.67;100.00
47522;BME280;32291;52.010;4.446;2023-05-23T03:32:58;78854.94;;;-144.67;100.00
47522;BME280;32291;52.010;4.446;2023-05-23T03:33:59;78861.34;;;-144.67;100.00
47522;BME280;32291;52.010;4.446;2023-05-23T03:35:01;78861.34;;;-144.67;100.00
47522;BME280;32291;52.010;4.446;2023-05-23T03:36:02;78878.50;;;-144.67;100.00
47522;BME280;32291;52.010;4.446;2023-05-23T03:37:04;78878.50;;;-144.67;100.00
47522;BME280;32291;52.010;4.446;2023-05-23T03:38:06;78878.50;;;-144.67;100.00
47522;BME280;32291;52.010;4.446;2023-05-23T03:39:08;78876.34;;;-144.67;100.00
47522;BME280;32291;52.010;4.446;2023-05-23T03:40:10;78872.06;;;-144.67;100.00
47522;BME280;32291;52.010;4.446;2023-05-23T03:41:12;78872.06;;;-144.67;100.00
47522;BME280;32291;52.010;4.446;2023-05-23T03:42:13;78874.22;;;-144.67;100.00
47522;BME280;32291;52.010;4.446;2023-05-23T03:43:15;78874.22;;;-144.67;100.00
47522;BME280;32291;52.010;4.446;2023-05-23T03:44:17;78887.06;;;-144.67;100.00
47522;BME280;32291;52.010;4.446;2023-05-23T03:45:18;78874.22;;;-144.67;100.00
47522;BME280;32291;52.010;4.446;2023-05-23T03:46:20;78878.50;;;-144.67;100.00
47522;BME280;32291;52.010;4.446;2023-05-23T03:47:22;78882.78;;;-144.67;100.00
47522;BME280;32291;52.010;4.446;2023-05-23T03:48:26;78906.34;;;-144.67;100.00
47522;BME280;32291;52.010;4.446;2023-05-23T03:49:30;78887.06;;;-144.67;100.00
47522;BME280;32291;52.010;4.446;2023-05-23T03:50:31;78884.91;;;-144.67;100.00
47522;BME280;32291;52.010;4.446;2023-05-23T03:51:33;78882.78;;;-144.67;100.00
47522;BME280;32291;52.010;4.446;2023-05-23T03:52:35;78882.78;;;-144.67;100.00
47522;BME280;32291;52.010;4.446;2023-05-23T03:53:37;78893.47;;;-144.67;100.00
47522;BME280;32291;52.010;4.446;2023-05-23T03:54:39;78884.91;;;-144.67;100.00
47522;BME280;32291;52.010;4.446;2023-05-23T03:55:41;78887.06;;;-144.67;100.00
47522;BME280;32291;52.010;4.446;2023-05-23T03:56:43;78914.91;;;-144.67;100.00
47522;BME280;32291;52.010;4.446;2023-05-23T03:57:44;78912.75;;;-144.67;100.00
47522;BME280;32291;52.010;4.446;2023-05-23T03:58:46;78919.19;;;-144.67;100.00
47522;BME280;32291;52.010;4.446;2023-05-23T03:59:48;78925.59;;;-144.67;100.00
47522;BME280;32291;52.010;4.446;2023-05-23T04:00:51;78942.72;;;-144.67;100.00
47522;BME280;32291;52.010;4.446;2023-05-23T04:01:53;78949.16;;;-144.67;100.00
47522;BME280;32291;52.010;4.446;2023-05-23T04:02:55;78953.44;;;-144.67;100.00
47522;BME280;32291;52.010;4.446;2023-05-23T04:03:57;78962.00;;;-144.67;100.00
47522;BME280;32291;52.010;4.446;2023-05-23T04:05:00;78972.72;;;-144.67;100.00
47522;BME280;32291;52.010;4.446;2023-05-23T04:06:03;78970.56;;;-144.67;100.00
47522;BME280;32291;52.010;4.446;2023-05-23T04:07:06;78962.00;;;-144.67;100.00
47522;BME280;32291;52.010;4.446;2023-05-23T04:08:08;78972.72;;;-144.67;100.00
47522;BME280;32291;52.010;4.446;2023-05-23T04:09:10;78977.00;;;-144.67;100.00
47522;BME280;32291;52.010;4.446;2023-05-23T04:10:12;78983.41;;;-144.67;100.00
47522;BME280;32291;52.010;4.446;2023-05-23T04:11:14;78974.84;;;-144.67;100.00
47522;BME280;32291;52.010;4.446;2023-05-23T04:12:16;78981.28;;;-144.67;100.00
47522;BME280;32291;52.010;4.446;2023-05-23T04:13:18;78972.72;;;-144.67;100.00
47522;BME280;32291;52.010;4.446;2023-05-23T04:14:20;78968.44;;;-144.67;100.00
47522;BME280;32291;52.010;4.446;2023-05-23T04:15:22;78968.44;;;-144.67;100.00
47522;BME280;32291;52.010;4.446;2023-05-23T04:16:25;78959.88;;;-144.67;100.00
47522;BME280;32291;52.010;4.446;2023-05-23T04:17:26;78959.88;;;-144.67;100.00
47522;BME280;32291;52.010;4.446;2023-05-23T04:18:31;78959.88;;;-144.67;100.00
47522;BME280;32291;52.010;4.446;2023-05-23T04:19:34;78959.88;;;-144.67;100.00
47522;BME280;32291;52.010;4.446;2023-05-23T04:20:36;78949.16;;;-144.67;100.00
47522;BME280;32291;52.010;4.446;2023-05-23T04:21:37;78955.59;;;-144.67;100.00
47522;BME280;32291;52.010;4.446;2023-05-23T04:22:39;78957.72;;;-144.67;100.00
47522;BME280;32291;52.010;4.446;2023-05-23T04:23:41;78959.88;;;-144.67;100.00
47522;BME280;32291;52.010;4.446;2023-05-23T04:24:43;78966.28;;;-144.67;100.00
47522;BME280;32291;52.010;4.446;2023-05-23T04:25:45;78966.28;;;-144.67;100.00
47522;BME280;32291;52.010;4.446;2023-05-23T04:26:48;78964.16;;;-144.67;100.00
47522;BME280;32291;52.010;4.446;2023-05-23T04:27:51;78964.16;;;-144.67;100.00
47522;BME280;32291;52.010;4.446;2023-05-23T04:28:54;78966.28;;;-144.67;100.00
47522;BME280;32291;52.010;4.446;2023-05-23T04:29:56;78968.44;;;-144.67;100.00
47522;BME280;32291;52.010;4.446;2023-05-23T04:30:59;78955.59;;;-144.67;100.00
47522;BME280;32291;52.010;4.446;2023-05-23T04:32:03;78949.16;;;-144.67;100.00
47522;BME280;32291;52.010;4.446;2023-05-23T04:33:06;78955.59;;;-144.67;100.00
47522;BME280;32291;52.010;4.446;2023-05-23T04:34:08;78949.16;;;-144.67;100.00
47522;BME280;32291;52.010;4.446;2023-05-23T04:35:10;78942.72;;;-144.67;100.00
47522;BME280;32291;52.010;4.446;2023-05-23T04:36:12;78940.59;;;-144.67;100.00
47522;BME280;32291;52.010;4.446;2023-05-23T04:37:14;78944.88;;;-144.67;100.00
47522;BME280;32291;52.010;4.446;2023-05-23T04:38:16;78940.59;;;-144.67;100.00
47522;BME280;32291;52.010;4.446;2023-05-23T04:39:18;78942.72;;;-144.67;100.00
47522;BME280;32291;52.010;4.446;2023-05-23T04:40:22;78938.44;;;-144.67;100.00
47522;BME280;32291;52.010;4.446;2023-05-23T04:41:25;78942.72;;;-144.67;100.00
47522;BME280;32291;52.010;4.446;2023-05-23T04:42:27;78947.03;;;-144.67;100.00
47522;BME280;32291;52.010;4.446;2023-05-23T04:43:29;78947.03;;;-144.67;100.00
47522;BME280;32291;52.010;4.446;2023-05-23T04:44:34;78942.72;;;-144.67;100.00
47522;BME280;32291;52.010;4.446;2023-05-23T04:45:38;78949.16;;;-144.67;100.00
47522;BME280;32291;52.010;4.446;2023-05-23T04:46:42;78955.59;;;-144.67;100.00
47522;BME280;32291;52.010;4.446;2023-05-23T04:47:45;78947.03;;;-144.67;100.00
47522;BME280;32291;52.010;4.446;2023-05-23T04:48:48;78951.31;;;-144.67;100.00
47522;BME280;32291;52.010;4.446;2023-05-23T04:49:50;78947.03;;;-144.67;100.00
47522;BME280;32291;52.010;4.446;2023-05-23T04:50:54;78938.44;;;-144.67;100.00
47522;BME280;32291;52.010;4.446;2023-05-23T04:51:56;78934.16;;;-144.67;100.00
47522;BME280;32291;52.010;4.446;2023-05-23T04:52:58;78938.44;;;-144.67;100.00
47522;BME280;32291;52.010;4.446;2023-05-23T04:54:01;78938.44;;;-144.67;100.00
47522;BME280;32291;52.010;4.446;2023-05-23T04:55:03;78942.72;;;-144.67;100.00
47522;BME280;32291;52.010;4.446;2023-05-23T04:56:07;78938.44;;;-144.67;100.00
47522;BME280;32291;52.010;4.446;2023-05-23T04:57:09;78947.03;;;-144.67;100.00
47522;BME280;32291;52.010;4.446;2023-05-23T04:58:11;78951.31;;;-144.67;100.00
47522;BME280;32291;52.010;4.446;2023-05-23T04:59:13;78942.72;;;-144.67;100.00
47522;BME280;32291;52.010;4.446;2023-05-23T05:00:16;78947.03;;;-144.67;100.00
47522;BME280;32291;52.010;4.446;2023-05-23T05:01:18;78947.03;;;-144.67;100.00
47522;BME280;32291;52.010;4.446;2023-05-23T05:02:20;78936.31;;;-144.67;100.00
47522;BME280;32291;52.010;4.446;2023-05-23T05:03:22;78951.31;;;-144.67;100.00
47522;BME280;32291;52.010;4.446;2023-05-23T05:04:25;78959.88;;;-144.67;100.00
47522;BME280;32291;52.010;4.446;2023-05-23T05:05:27;78949.16;;;-144.67;100.00
47522;BME280;32291;52.010;4.446;2023-05-23T05:06:28;78959.88;;;-144.67;100.00
47522;BME280;32291;52.010;4.446;2023-05-23T05:07:31;78955.59;;;-144.67;100.00
47522;BME280;32291;52.010;4.446;2023-05-23T05:08:32;78955.59;;;-144.67;100.00
47522;BME280;32291;52.010;4.446;2023-05-23T05:09:34;78953.44;;;-144.67;100.00
47522;BME280;32291;52.010;4.446;2023-05-23T05:10:39;78955.59;;;-144.67;100.00
47522;BME280;32291;52.010;4.446;2023-05-23T05:11:41;78962.00;;;-144.67;100.00
47522;BME280;32291;52.010;4.446;2023-05-23T05:12:46;78964.16;;;-144.67;100.00
47522;BME280;32291;52.010;4.446;2023-05-23T05:13:50;78979.13;;;-144.67;100.00
47522;BME280;32291;52.010;4.446;2023-05-23T05:14:52;78977.00;;;-144.67;100.00
47522;BME280;32291;52.010;4.446;2023-05-23T05:15:54;78964.16;;;-144.67;100.00
47522;BME280;32291;52.010;4.446;2023-05-23T05:16:56;78994.13;;;-144.67;100.00
47522;BME280;32291;52.010;4.446;2023-05-23T05:17:58;78979.13;;;-144.67;100.00
47522;BME280;32291;52.010;4.446;2023-05-23T05:19:00;78977.00;;;-144.67;100.00
47522;BME280;32291;52.010;4.446;2023-05-23T05:20:03;78983.41;;;-144.67;100.00
47522;BME280;32291;52.010;4.446;2023-05-23T05:21:09;78977.00;;;-144.67;100.00
47522;BME280;32291;52.010;4.446;2023-05-23T05:22:11;78981.28;;;-144.67;100.00
47522;BME280;32291;52.010;4.446;2023-05-23T05:23:13;78979.13;;;-144.67;100.00
47522;BME280;32291;52.010;4.446;2023-05-23T05:24:14;78977.00;;;-144.67;100.00
47522;BME280;32291;52.010;4.446;2023-05-23T05:25:16;78970.56;;;-144.67;100.00